createdAt,value
2023-01-25T00:04:41.170Z,1020.47
2023-01-25T00:09:43.436Z,1020.46
2023-01-25T00:14:54.645Z,1020.43
2023-01-25T00:20:05.775Z,1020.34
2023-01-25T00:25:16.934Z,1020.18
2023-01-25T00:30:28.111Z,1020.04
2023-01-25T00:35:39.274Z,1020.10
2023-01-25T00:40:50.460Z,1019.98
2023-01-25T00:45:59.780Z,1019.99
2023-01-25T00:51:03.911Z,1019.88
2023-01-25T00:56:06.146Z,1019.94
2023-01-25T01:01:10.441Z,1019.92
2023-01-25T01:06:14.527Z,1019.88
2023-01-25T01:11:18.664Z,1019.81
2023-01-25T01:16:22.893Z,1019.79
2023-01-25T01:21:27.033Z,1019.71
2023-01-25T01:26:31.212Z,1019.80
2023-01-25T01:31:35.392Z,1019.92
2023-01-25T01:36:39.483Z,1019.88
2023-01-25T01:46:47.964Z,1019.74
2023-01-25T01:51:51.990Z,1019.76
2023-01-25T01:56:54.338Z,1019.56
2023-01-25T02:01:58.438Z,1019.53
2023-01-25T02:07:02.635Z,1019.45
2023-01-25T02:12:06.802Z,1019.47
2023-01-25T02:17:11.018Z,1019.37
2023-01-25T02:22:15.114Z,1019.25
2023-01-25T02:27:19.299Z,1019.16
2023-01-25T02:32:23.458Z,1019.19
2023-01-25T02:37:27.589Z,1019.10
2023-01-25T02:42:29.901Z,1019.11
2023-01-25T02:47:34.032Z,1019.15
2023-01-25T02:52:38.236Z,1019.10
2023-01-25T02:57:42.402Z,1019.08
2023-01-25T03:02:46.621Z,1018.91
2023-01-25T03:07:50.699Z,1018.82
2023-01-25T03:12:54.893Z,1018.73
2023-01-25T03:17:59.016Z,1018.67
2023-01-25T03:28:07.386Z,1018.41
2023-01-25T03:33:11.569Z,1018.34
2023-01-25T03:38:15.741Z,1018.18
2023-01-25T03:43:19.877Z,1018.12
2023-01-25T03:48:24.061Z,1017.97
2023-01-25T03:53:28.214Z,1017.85
2023-01-25T03:58:32.400Z,1017.78
2023-01-25T04:03:36.530Z,1017.63
2023-01-25T04:08:40.701Z,1017.64
2023-01-25T04:13:44.859Z,1017.56
2023-01-25T04:18:49.046Z,1017.48
2023-01-25T04:23:53.316Z,1017.29
2023-01-25T04:28:57.369Z,1017.14
2023-01-25T04:33:59.644Z,1017.01
2023-01-25T04:39:03.821Z,1016.92
2023-01-25T04:44:07.984Z,1016.78
2023-01-25T04:49:12.157Z,1016.71
2023-01-25T04:54:16.348Z,1016.58
2023-01-25T04:59:20.485Z,1016.37
2023-01-25T05:04:24.662Z,1016.39
2023-01-25T05:09:28.791Z,1016.32
2023-01-25T05:14:33.009Z,1016.20
2023-01-25T05:19:37.119Z,1016.16
2023-01-25T05:24:41.313Z,1016.12
2023-01-25T05:29:45.466Z,1016.07
2023-01-25T05:34:49.656Z,1015.99
2023-01-25T05:39:53.819Z,1015.98
2023-01-25T05:44:57.958Z,1015.86
2023-01-25T05:50:02.157Z,1015.93
2023-01-25T05:55:06.379Z,1015.80
2023-01-25T06:00:10.476Z,1015.78
2023-01-25T06:05:14.619Z,1015.75
2023-01-25T06:10:18.816Z,1015.71
2023-01-25T06:15:22.946Z,1015.61
2023-01-25T06:20:25.255Z,1015.54
2023-01-25T06:25:29.389Z,1015.45
2023-01-25T06:30:31.669Z,1015.46
2023-01-25T06:35:35.843Z,1015.46
2023-01-25T06:40:38.129Z,1015.42
2023-01-25T06:45:42.308Z,1015.52
2023-01-25T06:50:46.485Z,1015.53
2023-01-25T06:55:50.627Z,1015.46
2023-01-25T07:00:54.816Z,1015.36
2023-01-25T07:05:58.954Z,1015.37
2023-01-25T07:11:03.142Z,1015.42
2023-01-25T07:16:07.262Z,1015.29
2023-01-25T07:21:11.449Z,1015.27
2023-01-25T07:26:15.631Z,1015.20
2023-01-25T07:31:19.820Z,1015.18
2023-01-25T07:36:23.935Z,1015.10
2023-01-25T07:41:28.221Z,1015.13
2023-01-25T07:46:32.293Z,1014.91
2023-01-25T07:51:36.461Z,1014.91
2023-01-25T07:56:40.776Z,1014.91
2023-01-25T08:01:44.800Z,1014.95
2023-01-25T08:06:48.967Z,1014.93
2023-01-25T08:11:53.137Z,1014.88
2023-01-25T08:16:57.274Z,1014.85
2023-01-25T08:22:01.426Z,1014.81
2023-01-25T08:27:03.747Z,1014.76
2023-01-25T08:32:07.886Z,1014.57
2023-01-25T08:37:10.196Z,1014.62
2023-01-25T08:42:14.342Z,1014.59
2023-01-25T08:47:18.513Z,1014.50
2023-01-25T08:52:23.062Z,1014.58
2023-01-25T08:57:26.812Z,1014.59
2023-01-25T09:02:30.975Z,1014.53
2023-01-25T09:07:35.189Z,1014.53
2023-01-25T09:12:39.333Z,1014.43
2023-01-25T09:17:43.513Z,1014.41
2023-01-25T09:22:47.650Z,1014.27
2023-01-25T09:27:51.809Z,1014.17
2023-01-25T09:32:56.086Z,1014.10
2023-01-25T09:38:00.161Z,1014.01
2023-01-25T09:43:04.309Z,1013.98
2023-01-25T09:48:08.489Z,1013.92
2023-01-25T09:53:12.645Z,1013.93
2023-01-25T09:58:16.818Z,1013.86
2023-01-25T10:03:20.998Z,1013.85
2023-01-25T10:08:25.154Z,1013.77
2023-01-25T10:13:29.286Z,1013.63
2023-01-25T10:18:33.475Z,1013.58
2023-01-25T10:23:35.768Z,1013.56
2023-01-25T10:28:39.944Z,1013.48
2023-01-25T10:33:42.201Z,1013.55
2023-01-25T10:38:46.383Z,1013.41
2023-01-25T10:43:50.544Z,1013.30
2023-01-25T10:48:54.764Z,1013.30
2023-01-25T10:53:58.878Z,1013.22
2023-01-25T10:59:03.023Z,1013.06
2023-01-25T11:04:07.197Z,1013.02
2023-01-25T11:09:11.352Z,1013.02
2023-01-25T11:14:15.535Z,1012.92
2023-01-25T11:19:19.688Z,1012.87
2023-01-25T11:24:23.897Z,1012.78
2023-01-25T11:29:28.040Z,1012.66
2023-01-25T11:34:32.188Z,1012.58
2023-01-25T11:39:36.364Z,1012.50
2023-01-25T11:44:40.549Z,1012.40
2023-01-25T11:49:44.716Z,1012.27
2023-01-25T11:54:48.877Z,1012.11
2023-01-25T11:59:53.020Z,1011.99
2023-01-25T12:04:57.210Z,1011.99
2023-01-25T12:10:01.355Z,1011.93
2023-01-25T12:15:07.453Z,1011.81
2023-01-25T12:20:08.139Z,1011.70
2023-01-25T12:25:11.962Z,1011.57
2023-01-25T12:30:16.131Z,1011.63
2023-01-25T12:35:18.403Z,1011.63
2023-01-25T12:40:22.597Z,1011.43
2023-01-25T12:45:26.751Z,1011.44
2023-01-25T12:50:30.895Z,1011.34
2023-01-25T12:55:35.097Z,1011.25
2023-01-25T13:00:39.264Z,1011.06
2023-01-25T13:05:43.414Z,1010.99
2023-01-25T13:10:47.547Z,1010.90
2023-01-25T13:15:51.733Z,1010.89
2023-01-25T13:20:55.892Z,1010.82
2023-01-25T13:26:00.106Z,1010.81
2023-01-25T13:31:04.481Z,1010.87
2023-01-25T13:36:08.370Z,1010.81
2023-01-25T13:41:12.636Z,1010.86
2023-01-25T13:46:16.740Z,1010.79
2023-01-25T13:51:20.889Z,1010.81
2023-01-25T13:56:25.103Z,1010.83
2023-01-25T14:01:29.226Z,1010.86
2023-01-25T14:06:33.403Z,1010.90
2023-01-25T14:11:37.546Z,1010.88
2023-01-25T14:16:41.770Z,1010.73
2023-01-25T14:21:43.995Z,1010.73
2023-01-25T14:26:48.151Z,1010.73
2023-01-25T14:31:52.405Z,1010.79
2023-01-25T14:36:56.504Z,1010.90
2023-01-25T14:42:01.871Z,1010.78
2023-01-25T14:47:04.795Z,1010.80
2023-01-25T14:52:09.007Z,1010.73
2023-01-25T15:02:17.402Z,1010.66
2023-01-25T15:07:21.491Z,1010.57
2023-01-25T15:12:25.686Z,1010.47
2023-01-25T15:17:29.832Z,1010.36
2023-01-25T15:22:33.991Z,1010.21
2023-01-25T15:27:38.159Z,1010.22
2023-01-25T15:32:42.347Z,1010.13
2023-01-25T15:37:49.011Z,1010.04
2023-01-25T15:42:50.641Z,1009.96
2023-01-25T15:47:54.838Z,1009.84
2023-01-25T15:52:59.013Z,1009.75
2023-01-25T15:58:03.138Z,1009.72
2023-01-25T16:03:07.312Z,1009.78
2023-01-25T16:08:11.496Z,1009.77
2023-01-25T16:13:13.760Z,1009.91
2023-01-25T16:18:17.898Z,1009.84
2023-01-25T16:23:22.104Z,1009.77
2023-01-25T16:28:26.285Z,1009.71
2023-01-25T16:33:30.437Z,1009.70
2023-01-25T16:38:34.596Z,1009.75
2023-01-25T16:43:42.913Z,1009.78
2023-01-25T16:48:42.915Z,1009.90
2023-01-25T16:53:47.125Z,1009.86
2023-01-25T16:58:51.241Z,1009.81
2023-01-25T17:03:55.434Z,1009.85
2023-01-25T17:09:02.226Z,1009.80
2023-01-25T17:14:03.763Z,1009.67
2023-01-25T17:19:07.928Z,1009.71
2023-01-25T17:24:12.124Z,1009.85
2023-01-25T17:29:16.244Z,1009.74
2023-01-25T17:34:20.377Z,1009.65
2023-01-25T17:39:24.578Z,1009.70
2023-01-25T17:44:28.723Z,1009.78
2023-01-25T17:49:32.893Z,1009.71
2023-01-25T17:54:37.080Z,1009.86
2023-01-25T17:59:39.342Z,1009.87
2023-01-25T18:04:43.505Z,1009.94
2023-01-25T18:09:45.819Z,1009.74
2023-01-25T18:14:49.966Z,1009.74
2023-01-25T18:19:52.304Z,1009.72
2023-01-25T18:24:56.400Z,1009.77
2023-01-25T18:30:00.577Z,1009.75
2023-01-25T18:35:04.727Z,1009.78
2023-01-25T18:40:08.917Z,1009.49
2023-01-25T18:45:13.063Z,1009.47
2023-01-25T18:50:17.226Z,1009.40
2023-01-25T18:55:19.492Z,1009.37
2023-01-25T19:00:23.680Z,1009.29
2023-01-25T19:05:27.837Z,1009.24
2023-01-25T19:10:31.999Z,1009.14
2023-01-25T19:15:36.167Z,1009.09
2023-01-25T19:20:40.322Z,1009.01
2023-01-25T19:25:44.520Z,1008.93
2023-01-25T19:30:48.766Z,1008.77
2023-01-25T19:35:52.858Z,1008.70
2023-01-25T19:40:56.976Z,1008.50
2023-01-25T19:46:01.249Z,1008.36
2023-01-25T19:51:05.342Z,1008.21
2023-01-25T19:56:09.500Z,1008.18
2023-01-25T20:01:13.671Z,1008.07
2023-01-25T20:06:15.938Z,1008.04
2023-01-25T20:11:20.129Z,1008.02
2023-01-25T20:16:22.480Z,1008.04
2023-01-25T20:21:26.578Z,1008.04
2023-01-25T20:26:30.698Z,1008.10
2023-01-25T20:31:35.023Z,1007.96
2023-01-25T20:36:39.035Z,1007.96
2023-01-25T20:41:43.233Z,1007.81
2023-01-25T20:46:47.405Z,1007.85
2023-01-25T20:51:51.575Z,1007.85
2023-01-25T20:56:55.752Z,1007.86
2023-01-25T21:01:59.918Z,1007.92
2023-01-25T21:07:04.077Z,1007.91
2023-01-25T21:12:08.207Z,1007.83
2023-01-25T21:17:12.466Z,1007.69
2023-01-25T21:22:16.630Z,1007.61
2023-01-25T21:27:20.695Z,1007.68
2023-01-25T21:32:24.900Z,1007.67
2023-01-25T21:37:29.047Z,1007.52
2023-01-25T21:42:33.191Z,1007.48
2023-01-25T21:47:37.389Z,1007.52
2023-01-25T21:52:43.548Z,1007.70
2023-01-25T21:57:45.702Z,1007.64
2023-01-25T22:02:48.070Z,1007.65
2023-01-25T22:07:52.152Z,1007.76
2023-01-25T22:12:54.560Z,1007.82
2023-01-25T22:17:58.598Z,1007.71
2023-01-25T22:23:02.739Z,1007.65
2023-01-25T22:28:06.920Z,1007.63
2023-01-25T22:33:11.082Z,1007.51
2023-01-25T22:38:15.291Z,1007.48
2023-01-25T22:43:19.424Z,1007.46
2023-01-25T22:48:23.599Z,1007.44
2023-01-25T22:53:27.782Z,1007.47
2023-01-25T22:58:31.904Z,1007.32
2023-01-25T23:03:36.157Z,1007.19
2023-01-25T23:08:40.281Z,1007.07
2023-01-25T23:13:44.465Z,1007.05
2023-01-25T23:18:48.591Z,1007.11
2023-01-25T23:23:52.754Z,1007.05
2023-01-25T23:28:56.948Z,1006.98
2023-01-25T23:34:01.105Z,1006.90
2023-01-25T23:39:05.272Z,1006.89
2023-01-25T23:44:09.433Z,1006.91
2023-01-25T23:49:13.608Z,1006.92
2023-01-25T23:54:17.739Z,1007.04
2023-01-25T23:59:20.062Z,1007.05
